createdAt,value
2022-08-09T00:00:53.341Z,6.60
2022-08-09T00:02:53.311Z,7.24
2022-08-09T00:04:00.542Z,6.91
2022-08-09T00:05:03.250Z,7.53
2022-08-09T00:06:15.933Z,7.17
2022-08-09T00:06:56.298Z,6.51
2022-08-09T00:07:54.353Z,6.49
2022-08-09T00:09:53.348Z,6.97
2022-08-09T00:10:53.318Z,7.00
2022-08-09T00:12:02.725Z,6.73
2022-08-09T00:13:53.346Z,7.38
2022-08-09T00:14:55.881Z,6.81
2022-08-09T00:15:58.648Z,6.80
2022-08-09T00:16:53.342Z,7.43
2022-08-09T00:18:05.733Z,6.86
2022-08-09T00:18:53.329Z,6.15
2022-08-09T00:19:53.367Z,6.18
2022-08-09T00:20:53.348Z,6.23
2022-08-09T00:22:53.354Z,6.17
2022-08-09T00:23:55.926Z,6.73
2022-08-09T00:24:53.360Z,6.32
2022-08-09T00:26:53.369Z,6.79
2022-08-09T00:27:53.389Z,8.04
2022-08-09T00:28:53.397Z,8.33
2022-08-09T00:30:23.587Z,10.97
2022-08-09T00:30:53.385Z,11.93
2022-08-09T00:31:59.920Z,9.67
2022-08-09T00:32:53.385Z,8.23
2022-08-09T00:33:53.393Z,6.86
2022-08-09T00:34:53.396Z,6.86
2022-08-09T00:35:53.405Z,6.76
2022-08-09T00:36:53.392Z,6.80
2022-08-09T00:37:53.395Z,7.39
2022-08-09T00:38:53.425Z,6.68
2022-08-09T00:40:12.874Z,6.02
2022-08-09T00:40:53.524Z,6.54
2022-08-09T00:44:16.317Z,6.97
2022-08-09T00:44:16.464Z,7.13
2022-08-09T00:44:25.506Z,6.92
2022-08-09T00:44:53.766Z,7.02
2022-08-09T00:46:57.600Z,5.79
2022-08-09T00:47:53.419Z,6.52
2022-08-09T00:48:54.520Z,6.86
2022-08-09T00:49:54.904Z,6.55
2022-08-09T00:50:53.440Z,6.98
2022-08-09T00:51:55.873Z,6.99
2022-08-09T00:52:53.871Z,6.46
2022-08-09T00:53:53.427Z,6.91
2022-08-09T00:54:53.562Z,6.76
2022-08-09T00:56:04.496Z,6.74
2022-08-09T00:56:53.459Z,7.32
2022-08-09T00:57:53.497Z,7.27
2022-08-09T00:59:53.441Z,6.55
2022-08-09T01:00:53.533Z,7.67
2022-08-09T01:02:53.495Z,6.80
2022-08-09T01:03:54.949Z,6.73
2022-08-09T01:04:53.490Z,6.40
2022-08-09T01:05:54.717Z,6.60
2022-08-09T01:06:55.539Z,6.39
2022-08-09T01:08:01.175Z,6.27
2022-08-09T01:08:53.680Z,6.12
2022-08-09T01:09:53.486Z,6.31
2022-08-09T01:10:53.506Z,6.54
2022-08-09T01:11:55.991Z,6.67
2022-08-09T01:12:53.524Z,7.56
2022-08-09T01:14:00.313Z,6.20
2022-08-09T01:14:53.502Z,6.72
2022-08-09T01:15:54.758Z,6.45
2022-08-09T01:16:53.522Z,6.84
2022-08-09T01:17:57.668Z,7.72
2022-08-09T01:20:02.832Z,7.50
2022-08-09T01:20:56.764Z,6.52
2022-08-09T01:22:54.789Z,7.62
2022-08-09T01:24:03.190Z,6.78
2022-08-09T01:24:53.524Z,6.91
2022-08-09T01:25:53.532Z,6.87
2022-08-09T01:27:53.530Z,7.29
2022-08-09T01:28:53.534Z,7.53
2022-08-09T01:29:55.264Z,7.82
2022-08-09T01:30:53.535Z,7.14
2022-08-09T01:32:31.031Z,6.85
2022-08-09T01:32:53.578Z,7.71
2022-08-09T01:33:53.561Z,7.78
2022-08-09T01:34:53.559Z,7.62
2022-08-09T01:35:53.574Z,7.38
2022-08-09T01:38:08.250Z,8.32
2022-08-09T01:38:53.562Z,7.04
2022-08-09T01:39:53.548Z,6.59
2022-08-09T01:41:04.869Z,7.47
2022-08-09T01:43:53.574Z,7.16
2022-08-09T01:45:53.571Z,7.35
2022-08-09T01:47:53.584Z,7.41
2022-08-09T01:48:53.596Z,7.35
2022-08-09T01:49:54.578Z,6.89
2022-08-09T01:50:55.221Z,7.84
2022-08-09T01:51:54.648Z,6.84
2022-08-09T01:52:53.588Z,7.28
2022-08-09T01:53:53.805Z,7.47
2022-08-09T01:54:53.604Z,7.40
2022-08-09T01:55:53.617Z,7.05
2022-08-09T01:56:53.610Z,7.42
2022-08-09T01:57:56.959Z,7.38
2022-08-09T01:58:53.629Z,7.75
2022-08-09T01:59:53.612Z,7.48
2022-08-09T02:00:53.645Z,6.91
2022-08-09T02:01:58.432Z,6.97
2022-08-09T02:02:53.626Z,6.44
2022-08-09T02:03:53.623Z,7.28
2022-08-09T02:04:53.623Z,8.20
2022-08-09T02:06:04.167Z,6.91
2022-08-09T02:06:58.655Z,7.24
2022-08-09T02:08:39.062Z,7.67
2022-08-09T02:09:59.385Z,7.03
2022-08-09T02:10:53.632Z,7.33
2022-08-09T02:11:53.635Z,7.70
2022-08-09T02:14:06.644Z,7.39
2022-08-09T02:14:53.643Z,6.96
2022-08-09T02:15:53.647Z,8.04
2022-08-09T02:16:59.667Z,7.05
2022-08-09T02:18:00.200Z,7.54
2022-08-09T02:18:53.667Z,6.95
2022-08-09T02:19:53.662Z,7.71
2022-08-09T02:20:53.669Z,7.08
2022-08-09T02:21:55.620Z,7.39
2022-08-09T02:22:53.668Z,6.74
2022-08-09T02:23:54.572Z,6.95
2022-08-09T02:24:53.665Z,6.99
2022-08-09T02:26:53.690Z,6.82
2022-08-09T02:28:00.244Z,7.42
2022-08-09T02:28:53.690Z,7.55
2022-08-09T02:29:53.681Z,7.61
2022-08-09T02:30:53.758Z,7.41
2022-08-09T02:32:53.689Z,7.07
2022-08-09T02:34:06.335Z,6.85
2022-08-09T02:34:57.718Z,7.37
2022-08-09T02:36:03.856Z,7.29
2022-08-09T02:36:53.705Z,7.44
2022-08-09T02:38:53.700Z,6.80
2022-08-09T02:39:54.980Z,7.47
2022-08-09T02:40:53.746Z,7.59
2022-08-09T02:42:53.733Z,7.87
2022-08-09T02:45:53.734Z,7.47
2022-08-09T02:46:53.748Z,7.66
2022-08-09T02:47:59.324Z,8.00
2022-08-09T02:48:53.952Z,7.48
2022-08-09T02:50:01.234Z,7.74
2022-08-09T02:50:56.389Z,7.98
2022-08-09T02:51:53.753Z,8.47
2022-08-09T02:52:55.107Z,7.59
2022-08-09T02:54:00.776Z,7.52
2022-08-09T02:54:55.017Z,7.81
2022-08-09T02:55:58.528Z,7.28
2022-08-09T02:58:00.709Z,7.49
2022-08-09T02:58:53.748Z,7.22
2022-08-09T03:00:58.741Z,7.62
2022-08-09T03:04:53.784Z,7.99
2022-08-09T03:05:55.568Z,7.62
2022-08-09T03:08:53.785Z,7.46
2022-08-09T03:09:54.301Z,8.12
2022-08-09T03:10:53.794Z,7.81
2022-08-09T03:12:05.766Z,7.82
2022-08-09T03:12:53.791Z,7.49
2022-08-09T03:14:01.212Z,7.97
2022-08-09T03:14:53.810Z,7.58
2022-08-09T03:16:06.479Z,7.71
2022-08-09T03:16:53.810Z,7.46
2022-08-09T03:17:57.932Z,8.16
2022-08-09T03:20:00.353Z,7.59
2022-08-09T03:20:53.827Z,8.75
2022-08-09T03:21:53.825Z,8.07
2022-08-09T03:22:57.104Z,8.38
2022-08-09T03:24:04.398Z,7.34
2022-08-09T03:25:06.558Z,7.43
2022-08-09T03:26:03.209Z,7.91
2022-08-09T03:26:53.847Z,6.97
2022-08-09T03:28:26.229Z,6.96
2022-08-09T03:28:55.089Z,7.41
2022-08-09T03:29:57.637Z,7.62
2022-08-09T03:30:53.851Z,7.62
2022-08-09T03:32:00.557Z,8.24
2022-08-09T03:32:53.845Z,8.16
2022-08-09T03:33:56.436Z,7.75
2022-08-09T03:36:13.446Z,8.05
2022-08-09T03:36:59.605Z,7.66
2022-08-09T03:37:56.239Z,8.04
2022-08-09T03:38:53.861Z,8.09
2022-08-09T03:39:55.624Z,7.61
2022-08-09T03:40:53.886Z,7.33
2022-08-09T03:42:06.136Z,7.68
2022-08-09T03:42:53.910Z,7.60
2022-08-09T03:44:08.504Z,7.02
2022-08-09T03:44:53.909Z,7.04
2022-08-09T03:46:04.165Z,7.40
2022-08-09T03:46:53.891Z,7.83
2022-08-09T03:47:53.913Z,7.87
2022-08-09T03:50:53.906Z,7.43
2022-08-09T03:52:53.899Z,8.05
2022-08-09T03:53:53.910Z,7.73
2022-08-09T03:54:53.892Z,8.31
2022-08-09T03:55:53.932Z,7.67
2022-08-09T03:56:53.912Z,7.43
2022-08-09T03:58:06.356Z,7.83
2022-08-09T03:58:54.607Z,7.82
2022-08-09T04:00:53.959Z,8.01
2022-08-09T04:01:53.921Z,7.91
2022-08-09T04:02:53.942Z,7.00
2022-08-09T04:04:01.323Z,8.14
2022-08-09T04:04:53.915Z,7.80
2022-08-09T04:05:53.933Z,7.15
2022-08-09T04:06:53.939Z,8.24
2022-08-09T04:07:57.139Z,7.51
2022-08-09T04:08:53.949Z,7.84
2022-08-09T04:09:53.975Z,8.57
2022-08-09T04:10:53.962Z,7.11
2022-08-09T04:11:53.942Z,7.61
2022-08-09T04:14:53.710Z,8.08
2022-08-09T04:15:02.161Z,7.63
2022-08-09T04:16:20.964Z,7.85
2022-08-09T04:16:53.975Z,8.26
2022-08-09T04:17:53.959Z,7.41
2022-08-09T04:18:53.947Z,8.08
2022-08-09T04:19:56.061Z,7.81
2022-08-09T04:20:53.985Z,8.18
2022-08-09T04:21:53.975Z,7.30
2022-08-09T04:22:54.000Z,7.66
2022-08-09T04:24:53.978Z,8.16
2022-08-09T04:25:57.837Z,7.98
2022-08-09T04:26:54.001Z,7.43
2022-08-09T04:27:53.999Z,8.88
2022-08-09T04:28:58.223Z,8.10
2022-08-09T04:29:53.999Z,7.81
2022-08-09T04:30:53.998Z,8.61
2022-08-09T04:31:54.006Z,8.33
2022-08-09T04:35:54.056Z,8.18
2022-08-09T04:36:54.024Z,8.35
2022-08-09T04:37:54.016Z,8.40
2022-08-09T04:38:54.060Z,7.67
2022-08-09T04:39:54.039Z,7.09
2022-08-09T04:40:54.234Z,7.83
2022-08-09T04:41:54.034Z,8.80
2022-08-09T04:42:54.020Z,8.52
2022-08-09T04:44:06.865Z,8.83
2022-08-09T04:48:00.964Z,8.78
2022-08-09T04:48:58.299Z,8.77
2022-08-09T04:49:55.680Z,8.74
2022-08-09T04:50:54.029Z,8.30
2022-08-09T04:52:54.069Z,8.31
2022-08-09T04:53:54.316Z,8.48
2022-08-09T04:54:54.057Z,8.06
2022-08-09T04:56:54.070Z,8.27
2022-08-09T04:58:01.830Z,8.69
2022-08-09T04:58:54.080Z,7.79
2022-08-09T04:59:54.119Z,8.35
2022-08-09T05:00:54.480Z,8.27
2022-08-09T05:01:54.084Z,8.78
2022-08-09T05:02:58.039Z,8.65
2022-08-09T05:03:58.675Z,8.84
2022-08-09T05:04:55.707Z,9.77
2022-08-09T05:06:06.650Z,8.32
2022-08-09T05:06:54.130Z,9.05
2022-08-09T05:07:54.095Z,8.84
2022-08-09T05:08:59.964Z,8.45
2022-08-09T05:09:54.107Z,8.82
2022-08-09T05:10:54.115Z,8.67
2022-08-09T05:11:54.112Z,8.74
2022-08-09T05:12:54.104Z,9.13
2022-08-09T05:14:54.106Z,8.94
2022-08-09T05:15:56.765Z,8.66
2022-08-09T05:16:58.886Z,8.71
2022-08-09T05:18:38.647Z,9.13
2022-08-09T05:19:57.121Z,8.59
2022-08-09T05:20:54.136Z,9.66
2022-08-09T05:21:56.036Z,9.37
2022-08-09T05:23:54.940Z,9.07
2022-08-09T05:24:01.482Z,8.56
2022-08-09T05:24:57.220Z,8.76
2022-08-09T05:25:54.153Z,9.53
2022-08-09T05:26:54.386Z,9.60
2022-08-09T05:27:55.407Z,9.06
2022-08-09T05:28:54.185Z,9.25
2022-08-09T05:29:54.150Z,8.64
2022-08-09T05:30:54.153Z,8.71
2022-08-09T05:31:57.114Z,8.24
2022-08-09T05:32:54.165Z,8.08
2022-08-09T05:33:54.165Z,9.26
2022-08-09T05:34:54.170Z,9.47
2022-08-09T05:35:54.171Z,9.10
2022-08-09T05:36:54.164Z,9.36
2022-08-09T05:37:54.185Z,9.69
2022-08-09T05:38:54.174Z,10.51
2022-08-09T05:39:58.389Z,8.98
2022-08-09T05:40:54.184Z,8.17
2022-08-09T05:41:54.186Z,9.20
2022-08-09T05:42:54.184Z,7.92
2022-08-09T05:43:54.176Z,8.36
2022-08-09T05:44:54.188Z,8.46
2022-08-09T05:45:56.894Z,7.77
2022-08-09T05:46:54.190Z,8.28
2022-08-09T05:47:59.196Z,7.44
2022-08-09T05:48:59.123Z,7.93
2022-08-09T05:50:25.967Z,7.91
2022-08-09T05:51:16.686Z,8.41
2022-08-09T05:51:54.239Z,7.38
2022-08-09T05:52:54.982Z,7.98
2022-08-09T05:53:57.333Z,7.57
2022-08-09T05:54:55.309Z,7.68
2022-08-09T05:55:54.270Z,7.50
2022-08-09T05:56:55.071Z,7.07
2022-08-09T05:57:56.951Z,7.31
2022-08-09T05:58:58.291Z,7.75
2022-08-09T05:59:54.224Z,7.85
2022-08-09T06:00:54.227Z,7.63
2022-08-09T06:01:58.811Z,7.62
2022-08-09T06:02:56.911Z,7.44
2022-08-09T06:03:58.102Z,6.83
2022-08-09T06:04:55.738Z,7.57
2022-08-09T06:06:04.689Z,8.06
2022-08-09T06:06:54.252Z,7.24
2022-08-09T06:08:05.562Z,7.71
2022-08-09T06:08:54.245Z,8.02
2022-08-09T06:10:02.101Z,7.63
2022-08-09T06:10:54.249Z,7.94
2022-08-09T06:11:57.645Z,6.88
2022-08-09T06:13:03.072Z,8.42
2022-08-09T06:13:54.260Z,7.64
2022-08-09T06:14:54.269Z,8.50
2022-08-09T06:15:54.287Z,7.44
2022-08-09T06:16:58.516Z,7.30
2022-08-09T06:17:54.279Z,7.90
2022-08-09T06:18:54.284Z,7.50
2022-08-09T06:19:54.278Z,7.58
2022-08-09T06:20:58.295Z,7.92
2022-08-09T06:21:58.620Z,7.47
2022-08-09T06:22:54.301Z,7.21
2022-08-09T06:23:55.260Z,7.55
2022-08-09T06:24:54.310Z,7.54
2022-08-09T06:25:55.383Z,7.39
2022-08-09T06:26:54.315Z,6.67
2022-08-09T06:27:54.305Z,7.14
2022-08-09T06:29:00.259Z,7.37
2022-08-09T06:29:58.529Z,7.23
2022-08-09T06:30:54.335Z,7.95
2022-08-09T06:32:08.794Z,7.28
2022-08-09T06:33:30.313Z,7.75
2022-08-09T06:33:54.403Z,7.72
2022-08-09T06:34:54.323Z,7.72
2022-08-09T06:35:57.584Z,7.60
2022-08-09T06:36:58.936Z,7.11
2022-08-09T06:38:05.645Z,6.44
2022-08-09T06:38:54.337Z,6.80
2022-08-09T06:39:59.730Z,6.89
2022-08-09T06:40:55.115Z,8.38
2022-08-09T06:42:08.118Z,8.03
2022-08-09T06:42:54.346Z,8.00
2022-08-09T06:43:54.345Z,7.90
2022-08-09T06:44:54.704Z,6.96
2022-08-09T06:46:05.885Z,7.22
2022-08-09T06:46:55.385Z,6.74
2022-08-09T06:48:00.744Z,6.79
2022-08-09T06:48:57.426Z,7.27
2022-08-09T06:50:14.670Z,7.40
2022-08-09T06:50:54.366Z,6.95
2022-08-09T06:51:54.368Z,6.88
2022-08-09T06:52:54.354Z,6.59
2022-08-09T06:54:00.878Z,6.63
2022-08-09T06:54:54.417Z,6.82
2022-08-09T06:55:54.381Z,6.45
2022-08-09T06:56:54.359Z,7.07
2022-08-09T06:58:03.371Z,6.56
2022-08-09T07:00:49.342Z,7.10
2022-08-09T07:00:52.035Z,6.28
2022-08-09T07:00:58.396Z,6.66
2022-08-09T07:02:04.474Z,7.09
2022-08-09T07:02:54.442Z,6.75
2022-08-09T07:03:57.825Z,6.51
2022-08-09T07:04:54.399Z,6.30
2022-08-09T07:06:04.093Z,6.55
2022-08-09T07:06:59.995Z,5.98
2022-08-09T07:08:00.986Z,6.52
2022-08-09T07:08:54.402Z,5.81
2022-08-09T07:10:00.591Z,5.97
2022-08-09T07:10:54.410Z,6.07
2022-08-09T07:11:54.416Z,6.63
2022-08-09T07:12:57.220Z,6.07
2022-08-09T07:14:05.209Z,6.01
2022-08-09T07:14:54.413Z,6.35
2022-08-09T07:16:39.152Z,6.29
2022-08-09T07:16:58.369Z,6.34
2022-08-09T07:18:02.098Z,6.34
2022-08-09T07:19:55.529Z,6.32
2022-08-09T07:20:54.447Z,5.81
2022-08-09T07:21:57.653Z,6.05
2022-08-09T07:22:54.788Z,6.73
2022-08-09T07:23:58.303Z,6.62
2022-08-09T07:24:54.462Z,6.89
2022-08-09T07:26:54.457Z,6.40
2022-08-09T07:27:55.586Z,6.18
2022-08-09T07:29:08.803Z,6.25
2022-08-09T07:29:57.020Z,6.33
2022-08-09T07:30:58.931Z,6.39
2022-08-09T07:31:54.467Z,6.60
2022-08-09T07:32:54.862Z,6.43
2022-08-09T07:33:55.844Z,6.24
2022-08-09T07:34:54.500Z,6.31
2022-08-09T07:35:54.781Z,6.79
2022-08-09T07:36:54.501Z,5.95
2022-08-09T07:37:59.387Z,6.50
2022-08-09T07:39:00.637Z,6.08
2022-08-09T07:39:54.534Z,6.37
2022-08-09T07:41:11.849Z,6.04
2022-08-09T07:41:54.544Z,6.57
2022-08-09T07:42:55.529Z,6.31
2022-08-09T07:43:56.421Z,5.98
2022-08-09T07:44:57.264Z,6.48
2022-08-09T07:45:54.515Z,6.59
2022-08-09T07:46:54.505Z,5.56
2022-08-09T07:48:04.016Z,6.23
2022-08-09T07:48:59.235Z,6.12
2022-08-09T07:50:05.392Z,5.59
2022-08-09T07:51:09.969Z,6.10
2022-08-09T07:52:04.353Z,5.65
2022-08-09T07:52:54.513Z,6.09
2022-08-09T07:54:04.991Z,5.50
2022-08-09T07:54:54.524Z,5.31
2022-08-09T07:56:03.235Z,5.45
2022-08-09T07:56:54.521Z,5.75
2022-08-09T07:57:54.531Z,5.40
2022-08-09T07:58:54.531Z,5.33
2022-08-09T08:00:03.756Z,5.26
2022-08-09T08:00:58.815Z,5.51
2022-08-09T08:01:54.578Z,5.58
2022-08-09T08:02:54.536Z,5.97
2022-08-09T08:03:54.572Z,4.81
2022-08-09T08:04:54.557Z,5.07
2022-08-09T08:06:56.312Z,5.19
2022-08-09T08:09:01.494Z,5.39
2022-08-09T08:09:03.587Z,5.42
2022-08-09T08:10:04.794Z,5.26
2022-08-09T08:12:10.641Z,5.27
2022-08-09T08:12:54.585Z,5.29
2022-08-09T08:13:56.650Z,5.02
2022-08-09T08:14:54.591Z,5.34
2022-08-09T08:15:54.723Z,5.09
2022-08-09T08:17:05.275Z,6.00
2022-08-09T08:17:58.347Z,5.14
2022-08-09T08:18:54.615Z,5.24
2022-08-09T08:19:54.599Z,5.41
2022-08-09T08:20:54.590Z,5.18
2022-08-09T08:21:54.606Z,5.61
2022-08-09T08:22:55.541Z,5.29
2022-08-09T08:23:55.925Z,5.61
2022-08-09T08:24:54.618Z,5.29
2022-08-09T08:26:06.437Z,4.84
2022-08-09T08:26:56.680Z,5.22
2022-08-09T08:27:54.618Z,4.89
2022-08-09T08:28:54.604Z,4.72
2022-08-09T08:29:54.631Z,4.98
2022-08-09T08:30:55.088Z,4.93
2022-08-09T08:32:03.336Z,5.27
2022-08-09T08:34:55.358Z,5.28
2022-08-09T08:36:12.298Z,5.84
2022-08-09T08:36:33.052Z,5.84
2022-08-09T08:36:55.916Z,5.18
2022-08-09T08:38:04.905Z,5.04
2022-08-09T08:38:54.642Z,5.02
2022-08-09T08:39:54.748Z,5.12
2022-08-09T08:40:54.648Z,5.08
2022-08-09T08:41:54.690Z,5.42
2022-08-09T08:42:54.677Z,5.72
2022-08-09T08:43:57.207Z,4.83
2022-08-09T08:44:59.384Z,5.41
2022-08-09T08:46:09.877Z,5.43
2022-08-09T08:47:02.276Z,5.44
2022-08-09T08:47:59.830Z,5.04
2022-08-09T08:48:54.679Z,5.71
2022-08-09T08:49:54.703Z,5.34
2022-08-09T08:50:54.672Z,4.96
2022-08-09T08:52:59.525Z,5.24
2022-08-09T08:54:04.327Z,4.90
2022-08-09T08:54:54.685Z,5.12
2022-08-09T08:55:54.666Z,4.73
2022-08-09T08:56:54.695Z,5.01
2022-08-09T08:57:56.555Z,4.44
2022-08-09T08:58:54.717Z,4.98
2022-08-09T08:59:57.424Z,4.86
2022-08-09T09:00:57.062Z,4.76
2022-08-09T09:01:57.371Z,5.03
2022-08-09T09:02:55.798Z,4.66
2022-08-09T09:03:54.830Z,4.69
2022-08-09T09:04:54.716Z,4.80
2022-08-09T09:06:01.145Z,4.66
2022-08-09T09:06:54.705Z,4.80
2022-08-09T09:07:54.750Z,4.46
2022-08-09T09:08:59.712Z,4.57
2022-08-09T09:10:02.503Z,4.85
2022-08-09T09:10:54.732Z,4.78
2022-08-09T09:11:54.723Z,5.16
2022-08-09T09:12:55.590Z,5.00
2022-08-09T09:13:57.995Z,5.16
2022-08-09T09:15:54.745Z,4.81
2022-08-09T09:16:54.738Z,5.00
2022-08-09T09:17:54.741Z,4.78
2022-08-09T09:19:15.650Z,5.06
2022-08-09T09:19:54.802Z,5.24
2022-08-09T09:20:54.753Z,4.70
2022-08-09T09:21:59.575Z,4.83
2022-08-09T09:22:55.577Z,4.46
2022-08-09T09:23:58.464Z,4.65
2022-08-09T09:25:00.811Z,4.64
2022-08-09T09:26:03.499Z,4.63
2022-08-09T09:26:54.767Z,4.97
2022-08-09T09:28:04.101Z,4.52
2022-08-09T09:29:03.992Z,4.98
2022-08-09T09:30:12.088Z,4.49
2022-08-09T09:30:54.778Z,4.05
2022-08-09T09:32:06.543Z,4.39
2022-08-09T09:32:54.787Z,4.30
2022-08-09T09:33:56.625Z,4.77
2022-08-09T09:34:54.811Z,4.33
2022-08-09T09:36:02.276Z,4.38
2022-08-09T09:36:54.929Z,3.92
2022-08-09T09:37:54.820Z,4.34
2022-08-09T09:38:54.809Z,4.57
2022-08-09T09:39:57.743Z,4.18
2022-08-09T09:40:54.799Z,4.05
2022-08-09T09:41:54.803Z,3.86
2022-08-09T09:42:54.804Z,4.50
2022-08-09T09:44:12.372Z,4.36
2022-08-09T09:44:54.812Z,4.59
2022-08-09T09:46:39.115Z,4.51
2022-08-09T09:46:54.824Z,3.31
2022-08-09T09:47:56.744Z,3.98
2022-08-09T09:48:54.828Z,4.28
2022-08-09T09:50:07.807Z,4.25
2022-08-09T09:50:54.834Z,4.36
2022-08-09T09:51:54.822Z,4.11
2022-08-09T09:52:56.739Z,4.34
2022-08-09T09:54:01.673Z,4.11
2022-08-09T09:54:55.826Z,4.53
2022-08-09T09:56:04.488Z,3.95
2022-08-09T09:58:03.629Z,4.36
2022-08-09T09:58:04.419Z,4.11
2022-08-09T09:59:00.133Z,4.20
2022-08-09T09:59:54.857Z,4.28
2022-08-09T10:00:59.452Z,4.17
2022-08-09T10:01:54.869Z,4.08
2022-08-09T10:02:54.886Z,3.97
2022-08-09T10:03:57.524Z,4.24
2022-08-09T10:04:54.867Z,4.11
2022-08-09T10:06:04.134Z,4.57
2022-08-09T10:06:54.877Z,4.36
2022-08-09T10:08:10.666Z,4.25
2022-08-09T10:08:57.640Z,4.79
2022-08-09T10:09:55.322Z,4.11
2022-08-09T10:10:54.887Z,4.20
2022-08-09T10:12:11.415Z,4.24
2022-08-09T10:12:55.251Z,4.54
2022-08-09T10:13:54.893Z,4.31
2022-08-09T10:14:54.924Z,4.09
2022-08-09T10:16:54.740Z,4.83
2022-08-09T10:18:54.922Z,5.17
2022-08-09T10:19:57.171Z,4.60
2022-08-09T10:20:54.921Z,4.51
2022-08-09T10:21:54.936Z,4.57
2022-08-09T10:22:59.941Z,4.55
2022-08-09T10:23:54.934Z,4.35
2022-08-09T10:24:54.938Z,4.37
2022-08-09T10:26:07.887Z,4.44
2022-08-09T10:26:54.927Z,3.95
2022-08-09T10:27:57.853Z,4.37
2022-08-09T10:29:22.647Z,4.43
2022-08-09T10:30:43.893Z,4.44
2022-08-09T10:32:55.419Z,4.95
2022-08-09T10:34:10.893Z,4.85
2022-08-09T10:34:54.957Z,4.62
2022-08-09T10:36:01.156Z,3.84
2022-08-09T10:36:54.950Z,4.66
2022-08-09T10:37:54.964Z,4.29
2022-08-09T10:38:59.835Z,4.50
2022-08-09T10:39:55.027Z,4.19
2022-08-09T10:40:56.487Z,4.66
2022-08-09T10:41:55.048Z,4.20
2022-08-09T10:42:54.979Z,5.40
2022-08-09T10:43:59.345Z,5.19
2022-08-09T10:44:54.978Z,4.23
2022-08-09T10:46:00.126Z,4.89
2022-08-09T10:49:55.680Z,4.59
2022-08-09T10:50:54.990Z,4.02
2022-08-09T10:51:54.990Z,4.22
2022-08-09T10:52:55.011Z,4.81
2022-08-09T10:53:55.115Z,4.29
2022-08-09T10:54:55.010Z,4.82
2022-08-09T10:56:00.017Z,4.34
2022-08-09T10:56:55.004Z,4.31
2022-08-09T10:57:55.711Z,4.72
2022-08-09T10:58:55.019Z,4.39
2022-08-09T10:59:57.566Z,4.13
2022-08-09T11:03:02.999Z,4.28
2022-08-09T11:03:15.336Z,4.31
2022-08-09T11:03:16.372Z,4.15
2022-08-09T11:03:59.885Z,4.69
2022-08-09T11:04:55.935Z,4.49
2022-08-09T11:05:59.991Z,5.20
2022-08-09T11:06:55.033Z,4.83
2022-08-09T11:07:58.473Z,4.68
2022-08-09T11:08:55.053Z,4.37
2022-08-09T11:09:59.718Z,4.48
2022-08-09T11:10:56.573Z,4.66
2022-08-09T11:11:56.355Z,4.93
2022-08-09T11:12:55.060Z,4.12
2022-08-09T11:13:55.123Z,4.40
2022-08-09T11:16:04.980Z,4.51
2022-08-09T11:16:55.110Z,4.72
2022-08-09T11:18:02.568Z,4.95
2022-08-09T11:18:55.119Z,4.32
2022-08-09T11:20:11.263Z,5.21
2022-08-09T11:20:55.158Z,4.56
2022-08-09T11:22:05.154Z,5.17
2022-08-09T11:22:57.130Z,4.65
2022-08-09T11:23:55.074Z,4.65
2022-08-09T11:24:55.092Z,4.55
2022-08-09T11:25:55.093Z,4.70
2022-08-09T11:26:55.182Z,5.01
2022-08-09T11:28:03.767Z,4.84
2022-08-09T11:28:57.035Z,4.27
2022-08-09T11:30:04.861Z,3.90
2022-08-09T11:30:55.152Z,4.52
2022-08-09T11:31:55.166Z,4.28
2022-08-09T11:32:55.119Z,4.12
2022-08-09T11:33:55.148Z,4.06
2022-08-09T11:34:55.113Z,4.05
2022-08-09T11:35:55.138Z,4.46
2022-08-09T11:36:55.113Z,4.89
2022-08-09T11:37:55.115Z,4.41
2022-08-09T11:38:56.305Z,4.08
2022-08-09T11:39:55.198Z,4.54
2022-08-09T11:40:55.184Z,3.78
2022-08-09T11:41:58.798Z,3.99
2022-08-09T11:42:55.148Z,4.50
2022-08-09T11:43:55.286Z,4.19
2022-08-09T11:44:55.146Z,3.85
2022-08-09T11:45:55.149Z,4.67
2022-08-09T11:47:56.430Z,4.91
2022-08-09T11:48:55.153Z,3.75
2022-08-09T11:50:53.922Z,3.73
2022-08-09T11:52:48.691Z,3.66
2022-08-09T11:53:01.014Z,3.94
2022-08-09T11:53:28.005Z,3.98
2022-08-09T11:53:59.654Z,3.78
2022-08-09T11:54:55.170Z,3.81
2022-08-09T11:56:02.962Z,4.19
2022-08-09T11:56:55.184Z,4.43
2022-08-09T11:58:02.702Z,4.11
2022-08-09T11:58:55.169Z,4.58
2022-08-09T12:00:55.195Z,4.25
2022-08-09T12:02:16.953Z,3.89
2022-08-09T12:02:55.349Z,4.18
2022-08-09T12:03:58.129Z,3.77
2022-08-09T12:04:58.935Z,3.66
2022-08-09T12:05:55.196Z,3.90
2022-08-09T12:06:56.071Z,3.52
2022-08-09T12:07:55.195Z,3.44
2022-08-09T12:08:55.190Z,3.63
2022-08-09T12:09:55.203Z,4.16
2022-08-09T12:10:55.230Z,3.86
2022-08-09T12:12:02.929Z,3.49
2022-08-09T12:12:55.209Z,3.56
2022-08-09T12:14:08.218Z,3.05
2022-08-09T12:15:07.775Z,3.75
2022-08-09T12:15:55.271Z,3.59
2022-08-09T12:16:56.370Z,4.13
2022-08-09T12:17:55.209Z,3.90
2022-08-09T12:18:55.210Z,3.43
2022-08-09T12:19:59.335Z,3.51
2022-08-09T12:20:55.227Z,3.41
2022-08-09T12:21:55.245Z,3.80
2022-08-09T12:22:55.621Z,3.45
2022-08-09T12:24:08.520Z,3.30
2022-08-09T12:24:55.238Z,3.28
2022-08-09T12:25:55.279Z,3.48
2022-08-09T12:29:10.555Z,3.49
2022-08-09T12:29:12.312Z,4.01
2022-08-09T12:29:12.697Z,3.85
2022-08-09T12:30:55.269Z,3.86
2022-08-09T12:32:02.086Z,3.09
2022-08-09T12:32:55.270Z,3.63
2022-08-09T12:33:58.865Z,3.09
2022-08-09T12:34:55.274Z,3.86
2022-08-09T12:35:55.304Z,3.20
2022-08-09T12:36:59.085Z,3.53
2022-08-09T12:37:55.281Z,3.55
2022-08-09T12:38:55.288Z,2.97
2022-08-09T12:39:55.290Z,3.41
2022-08-09T12:40:55.286Z,3.62
2022-08-09T12:41:55.289Z,3.37
2022-08-09T12:42:55.297Z,3.18
2022-08-09T12:44:05.910Z,3.09
2022-08-09T12:44:55.273Z,3.70
2022-08-09T12:45:59.587Z,4.10
2022-08-09T12:46:55.342Z,3.93
2022-08-09T12:47:55.300Z,3.68
2022-08-09T12:48:55.304Z,2.99
2022-08-09T12:49:56.503Z,3.83
2022-08-09T12:50:55.332Z,3.58
2022-08-09T12:52:02.820Z,3.85
2022-08-09T12:53:07.884Z,3.78
2022-08-09T12:53:55.315Z,3.93
2022-08-09T12:55:03.223Z,3.28
2022-08-09T12:56:12.382Z,2.99
2022-08-09T12:56:55.323Z,3.11
2022-08-09T12:57:55.328Z,3.27
2022-08-09T12:58:57.777Z,3.14
2022-08-09T13:00:02.083Z,3.30
2022-08-09T13:00:56.186Z,3.68
2022-08-09T13:02:55.354Z,3.40
2022-08-09T13:03:58.889Z,3.20
2022-08-09T13:04:55.342Z,2.88
2022-08-09T13:06:14.370Z,2.95
2022-08-09T13:06:55.364Z,3.30
2022-08-09T13:07:55.342Z,3.40
2022-08-09T13:08:56.279Z,3.35
2022-08-09T13:10:01.432Z,3.46
2022-08-09T13:10:55.373Z,3.52
2022-08-09T13:12:01.608Z,3.54
2022-08-09T13:13:08.727Z,2.90
2022-08-09T13:14:42.956Z,3.84
2022-08-09T13:14:55.409Z,3.43
2022-08-09T13:15:55.449Z,2.93
2022-08-09T13:16:56.525Z,3.67
2022-08-09T13:18:04.755Z,3.27
2022-08-09T13:18:55.376Z,2.75
2022-08-09T13:20:08.356Z,3.50
2022-08-09T13:21:20.503Z,3.43
2022-08-09T13:22:35.952Z,3.20
2022-08-09T13:23:05.149Z,3.47
2022-08-09T13:24:17.231Z,3.48
2022-08-09T13:24:55.785Z,3.49
2022-08-09T13:25:56.190Z,3.10
2022-08-09T13:26:55.402Z,3.29
2022-08-09T13:27:56.659Z,3.53
2022-08-09T13:28:55.401Z,3.42
2022-08-09T13:30:04.269Z,2.99
2022-08-09T13:32:15.265Z,3.59
2022-08-09T13:32:15.665Z,3.52
2022-08-09T13:32:55.444Z,3.20
2022-08-09T13:34:55.437Z,3.44
2022-08-09T13:36:24.355Z,3.29
2022-08-09T13:37:56.236Z,3.30
2022-08-09T13:38:59.898Z,3.49
2022-08-09T13:41:51.668Z,3.12
2022-08-09T13:41:51.971Z,3.77
2022-08-09T13:42:01.038Z,3.30
2022-08-09T13:42:55.553Z,2.90
2022-08-09T13:44:55.435Z,3.40
2022-08-09T13:46:42.715Z,3.43
2022-08-09T13:47:26.963Z,3.19
2022-08-09T13:47:58.903Z,2.97
2022-08-09T13:48:55.467Z,3.61
2022-08-09T13:49:57.568Z,3.28
2022-08-09T13:50:55.470Z,3.48
2022-08-09T13:52:00.675Z,3.15
2022-08-09T13:52:55.474Z,3.02
2022-08-09T13:53:55.487Z,3.23
2022-08-09T13:55:00.667Z,3.66
2022-08-09T13:55:55.502Z,3.59
2022-08-09T13:58:55.486Z,3.74
2022-08-09T13:59:55.509Z,3.56
2022-08-09T14:00:55.516Z,3.53
2022-08-09T14:01:56.129Z,3.42
2022-08-09T14:03:03.636Z,3.45
2022-08-09T14:04:02.773Z,3.67
2022-08-09T14:05:00.089Z,3.23
2022-08-09T14:05:58.267Z,3.46
2022-08-09T14:06:55.496Z,3.38
2022-08-09T14:08:01.209Z,3.10
2022-08-09T14:09:55.517Z,3.46
2022-08-09T14:10:55.527Z,3.18
2022-08-09T14:11:55.520Z,3.17
2022-08-09T14:12:55.528Z,3.50
2022-08-09T14:14:22.279Z,3.24
2022-08-09T14:14:56.631Z,3.17
2022-08-09T14:16:10.043Z,3.47
2022-08-09T14:16:55.533Z,3.56
2022-08-09T14:18:16.521Z,3.31
2022-08-09T14:18:55.546Z,3.22
2022-08-09T14:19:55.538Z,3.14
2022-08-09T14:20:55.574Z,3.55
2022-08-09T14:21:55.588Z,3.49
2022-08-09T14:22:55.563Z,3.62
2022-08-09T14:23:56.965Z,3.24
2022-08-09T14:24:55.594Z,3.49
2022-08-09T14:26:00.954Z,3.54
2022-08-09T14:27:58.321Z,3.37
2022-08-09T14:28:55.567Z,3.46
2022-08-09T14:30:34.318Z,3.08
2022-08-09T14:30:55.621Z,3.38
2022-08-09T14:31:55.599Z,3.30
2022-08-09T14:32:55.592Z,3.37
2022-08-09T14:33:55.588Z,3.91